Malaysia Virtual Airlines Airport Information Service

Suvarnabhumi

ICAO: VTBS Country: Thailand
Latitude: 13.6811 Longitude: 100.747
Latest Arrival : TG426 (WMKP-VTBS) Latest Departure : MH785 (VTBS-WMKK)


WX CaptureLIVE
Data provided by noaa.gov | Fetched at 05:20:50

METAR : VTBS 290500Z 03011KT 360V070 9999 FEW035 31/19 Q1011 NOSIG

TAF : VTBS 282300Z 2900/3006 36008KT 9000 FEW030 SCT100 BECMG 2902/2904 06008KT


Runway Data for VTBS
Data provided by openaviationdata.com

Runway ID Mag Var Hdg Length Elevation Surface ILS Freq ILS Id ILS Slope
01L 0 14° 12139 ft 5 ft Asphalt 109.1 ISWS 0
01R 0 14° 12139 ft 5 ft Asphalt 110.1 ISES 0
19L 0 194.4° 12139 ft 5 ft Asphalt 110.5 ISEN 0
19R 0 194.4° 12139 ft 5 ft Asphalt 109.5 ISWN 0

Suvarnabhumi, Thailand
Use only for reference purposes



Not for navigational purposes.